Etusivu
METAR-TAF:

METAR-TAF

Lentoasemat :

Rørvik, Norja

Leveyspiiri: 64-50N, Pituuspiiri: 011-09E, korkeus merenpinnasta: 4 m

Tämänhetkinen sää

Tämä raportti tehtiin 1 tunti ja 50 minuuttia sitten, kello 18.50 UTC
Tuuli 6 kn idästä/koillisesta, vaihdellen koillisen ja idän/kaakon välillä
Lämpötila 19°C
Kosteus 49%
Ilmanpaine 1018 hPa
Näkyvyys 10 km tai enemmän
ei pilviä alle 1500 m:ssä eikä cumulonimbus-pilviä

METAR: ENRM 231850Z 07006KT 040V110 CAVOK 19/08 Q1018

Aika: 22:40 (20:40 UTC)

Sääennuste

Tämä raportti tehtiin 4 tuntia ja 10 minuuttia sitten, kello 16.30 UTC
Ennuste voimassa 23. päivästä klo 16 UTC - 23. päivään klo 19 UTC
Tuuli 7 kn idästä
Näkyvyys 10 km tai enemmän
Muutamia pilviä 4000 ft:n korkeudessa, Kasvava cumulus-pilvi.
Hajanaisia pilviä 8000 ft:n korkeudessa

TAF: ENRM 231630Z 2316/2319 09007KT 9999 FEW040TCU SCT080

Säähavainnot ja -ennusteet yli 4000 lentoasemalta (METAR- ja TAF-raportit).

Käytössä olevat sääasemat on merkitty karttaan keltaisilla ja punaisilla pisteillä.

Aseta hiiri pisteen päälle nähdäksesi sääaseman nimen.

Klikkaa sitten nähdäksesi säähavainnot ja -ennusteet.

Kartan vaihtaminen: klikkaa mustalla rastilla varustettuja vihreitä pisteitä, niin voit zoomata sisään; viivalla varustettua vihreää pistettä, niin voit zoomata ulos tai vihreitä nuolia, niin pääset viereisille kartoille.


METAR-TAF: